If you wish to contribute or participate in the discussions about articles you are invited to join SKYbrary as a registered user

 Actions

Locarno Airport

From SKYbrary Wiki

LSZL
Airport
ICAO: LSZL – IATA: ZJI
Summary
Name Locarno Airport
Region Europe
Territory Switzerland CH.gif
Location , Ticino
Serving Locarno
Elevation 198.12 m
650 ft
650 ft198.12 m
Type small airport
Coordinates 46° 9' 38.88" N, 8° 52' 43.00" E
Runways
Designator Length Width Surface ROPS
08C/26C 700 m2,296.588 ft
30 m98.425 ft
GRASS /
08L/26R 800 m2,624.672 ft
23 m75.459 ft
ASPH /


METAR
Observation LSZL 110950Z 24003KT 200V260 9999 FEW090 13/09 Q1009 RMK BLU+
Station LOCARNO
Date/Time 11 April 2019 09:50:00
Wind direction 240°
Wind speed 03 kts
Lowest cloud amount few clouds
Temperature 13°C
Dew point 9°C
Humidity 76%
QNH 1009 hPa
Weather condition n/a